createdAt,value
2019-02-26T00:01:57.486Z,98.70
2019-02-26T00:04:25.464Z,98.90
2019-02-26T00:06:54.029Z,98.90
2019-02-26T00:09:22.628Z,99.00
2019-02-26T00:11:50.860Z,99.10
2019-02-26T00:14:20.381Z,99.20
2019-02-26T00:16:46.757Z,99.30
2019-02-26T00:19:15.283Z,99.40
2019-02-26T00:21:43.117Z,99.40
2019-02-26T00:24:12.825Z,99.40
2019-02-26T00:26:40.829Z,99.50
2019-02-26T00:29:08.608Z,99.60
2019-02-26T00:31:35.403Z,99.50
2019-02-26T00:34:02.188Z,99.70
2019-02-26T00:36:29.845Z,99.70
2019-02-26T00:38:58.445Z,99.60
2019-02-26T00:41:26.814Z,99.70
2019-02-26T00:43:55.347Z,99.60
2019-02-26T00:46:24.224Z,99.70
2019-02-26T00:48:52.531Z,99.70
2019-02-26T00:51:21.039Z,99.80
2019-02-26T00:53:50.793Z,99.80
2019-02-26T00:56:16.615Z,99.70
2019-02-26T00:58:44.086Z,99.70
2019-02-26T01:01:14.672Z,99.90
2019-02-26T01:03:43.040Z,99.90
2019-02-26T01:06:10.267Z,99.90
2019-02-26T01:08:37.948Z,99.90
2019-02-26T01:11:07.743Z,99.90
2019-02-26T01:13:34.471Z,99.90
2019-02-26T01:16:01.411Z,99.90
2019-02-26T01:18:28.993Z,99.90
2019-02-26T01:20:57.351Z,99.90
2019-02-26T01:23:26.721Z,99.90
2019-02-26T01:25:54.701Z,99.90
2019-02-26T01:28:22.612Z,99.90
2019-02-26T01:30:53.638Z,99.90
2019-02-26T01:33:19.455Z,99.90
2019-02-26T01:35:46.457Z,99.90
2019-02-26T01:38:14.459Z,99.90
2019-02-26T01:40:45.645Z,99.90
2019-02-26T01:43:10.836Z,99.90
2019-02-26T01:45:37.704Z,99.90
2019-02-26T01:48:06.295Z,99.90
2019-02-26T01:50:33.823Z,99.90
2019-02-26T01:53:01.787Z,99.90
2019-02-26T01:55:28.644Z,99.90
2019-02-26T01:57:58.488Z,99.90
2019-02-26T02:00:25.978Z,99.90
2019-02-26T02:02:52.855Z,99.90
2019-02-26T02:05:21.594Z,99.90
2019-02-26T02:07:51.147Z,99.90
2019-02-26T02:10:17.505Z,99.90
2019-02-26T02:12:44.325Z,99.90
2019-02-26T02:15:14.950Z,99.90
2019-02-26T02:17:41.394Z,99.90
2019-02-26T02:20:10.969Z,99.90
2019-02-26T02:22:39.933Z,99.90
2019-02-26T02:25:07.723Z,99.90
2019-02-26T02:27:34.706Z,99.90
2019-02-26T02:30:01.626Z,99.90
2019-02-26T02:32:29.819Z,99.90
2019-02-26T02:35:00.587Z,99.90
2019-02-26T02:37:26.927Z,99.90
2019-02-26T02:39:55.175Z,99.90
2019-02-26T02:42:22.140Z,99.90
2019-02-26T02:44:50.324Z,99.90
2019-02-26T02:47:17.839Z,99.90
2019-02-26T02:49:44.706Z,99.90
2019-02-26T02:52:11.983Z,99.90
2019-02-26T02:54:41.083Z,99.90
2019-02-26T02:57:09.854Z,99.90
2019-02-26T02:59:37.368Z,99.90
2019-02-26T03:02:05.099Z,99.90
2019-02-26T03:04:34.718Z,99.90
2019-02-26T03:07:03.006Z,99.90
2019-02-26T03:09:31.180Z,99.90
2019-02-26T03:11:58.303Z,99.90
2019-02-26T03:14:25.053Z,99.90
2019-02-26T03:16:53.477Z,99.90
2019-02-26T03:19:20.535Z,99.90
2019-02-26T03:21:49.512Z,99.90
2019-02-26T03:24:16.017Z,99.90
2019-02-26T03:26:42.899Z,99.90
2019-02-26T03:29:09.632Z,99.90
2019-02-26T03:31:40.654Z,99.90
2019-02-26T03:34:10.574Z,99.90
2019-02-26T03:36:38.302Z,99.90
2019-02-26T03:39:05.823Z,99.90
2019-02-26T03:41:32.552Z,99.90
2019-02-26T03:44:00.831Z,99.90
2019-02-26T03:46:30.137Z,99.90
2019-02-26T03:48:56.842Z,99.90
2019-02-26T03:51:23.641Z,99.90
2019-02-26T03:53:50.513Z,99.90
2019-02-26T03:56:20.364Z,99.90
2019-02-26T03:58:46.519Z,99.90
2019-02-26T04:01:15.996Z,99.90
2019-02-26T04:03:42.567Z,99.90
2019-02-26T04:06:12.052Z,99.90
2019-02-26T04:08:38.583Z,99.90
2019-02-26T04:11:05.449Z,99.90
2019-02-26T04:13:32.312Z,99.90
2019-02-26T04:16:01.513Z,99.90
2019-02-26T04:18:27.884Z,99.90
2019-02-26T04:20:56.806Z,99.90
2019-02-26T04:23:23.546Z,99.90
2019-02-26T04:26:20.837Z,99.90
2019-02-26T04:29:15.671Z,99.90
2019-02-26T04:32:40.879Z,99.90
2019-02-26T04:35:16.658Z,99.90
2019-02-26T04:38:33.973Z,99.90
2019-02-26T04:41:29.182Z,99.90
2019-02-26T04:44:47.701Z,99.90
2019-02-26T04:47:17.742Z,99.90
2019-02-26T04:49:45.117Z,99.90
2019-02-26T04:52:14.388Z,99.90
2019-02-26T04:54:40.823Z,99.90
2019-02-26T04:57:07.664Z,99.90
2019-02-26T04:59:35.098Z,99.90
2019-02-26T05:02:03.524Z,99.90
2019-02-26T05:04:33.205Z,99.90
2019-02-26T05:06:59.047Z,99.90
2019-02-26T05:09:27.501Z,99.90
2019-02-26T05:11:54.531Z,99.90
2019-02-26T05:14:23.592Z,99.90
2019-02-26T05:16:50.219Z,99.90
2019-02-26T05:19:19.018Z,99.90
2019-02-26T05:21:45.930Z,99.90
2019-02-26T05:24:15.065Z,99.90
2019-02-26T05:26:41.319Z,99.90
2019-02-26T05:29:11.710Z,99.90
2019-02-26T05:31:40.238Z,99.90
2019-02-26T05:34:07.306Z,99.90
2019-02-26T05:36:36.862Z,99.90
2019-02-26T05:39:05.768Z,99.90
2019-02-26T05:41:32.823Z,99.90
2019-02-26T05:44:03.521Z,99.90
2019-02-26T05:46:29.521Z,99.90
2019-02-26T05:48:56.801Z,99.90
2019-02-26T05:51:24.496Z,99.90
2019-02-26T05:53:52.158Z,99.90
2019-02-26T05:56:20.751Z,99.90
2019-02-26T05:58:47.938Z,99.90
2019-02-26T06:01:18.491Z,99.90
2019-02-26T06:03:46.095Z,99.90
2019-02-26T06:06:12.339Z,99.90
2019-02-26T06:08:41.141Z,99.90
2019-02-26T06:11:07.940Z,99.90
2019-02-26T06:13:37.698Z,99.90
2019-02-26T06:16:05.361Z,99.90
2019-02-26T06:18:32.407Z,99.90
2019-02-26T06:21:01.285Z,99.90
2019-02-26T06:23:28.809Z,99.90
2019-02-26T06:25:59.080Z,99.90
2019-02-26T06:28:26.691Z,99.90
2019-02-26T06:30:55.017Z,99.90
2019-02-26T06:33:22.195Z,99.90
2019-02-26T06:35:48.922Z,99.90
2019-02-26T06:38:15.843Z,99.90
2019-02-26T06:40:46.463Z,99.90
2019-02-26T06:43:11.474Z,99.90
2019-02-26T06:45:40.307Z,99.90
2019-02-26T06:48:06.951Z,99.90
2019-02-26T06:50:34.745Z,99.90
2019-02-26T06:53:04.643Z,99.90
2019-02-26T06:55:31.247Z,99.90
2019-02-26T06:58:26.839Z,99.90
2019-02-26T07:00:55.562Z,99.90
2019-02-26T07:03:24.780Z,99.50
2019-02-26T07:05:51.494Z,99.10
2019-02-26T07:08:19.040Z,99.00
2019-02-26T07:10:47.242Z,98.70
2019-02-26T07:13:14.263Z,98.30
2019-02-26T07:15:42.978Z,97.90
2019-02-26T07:18:14.327Z,97.30
2019-02-26T07:20:39.979Z,96.80
2019-02-26T07:23:08.775Z,96.00
2019-02-26T07:25:38.442Z,95.30
2019-02-26T07:28:05.155Z,94.20
2019-02-26T07:30:32.614Z,93.50
2019-02-26T07:33:02.931Z,92.30
2019-02-26T07:35:30.646Z,91.00
2019-02-26T07:38:01.181Z,90.20
2019-02-26T07:40:30.390Z,87.00
2019-02-26T07:42:56.687Z,83.90
2019-02-26T07:45:24.898Z,81.80
2019-02-26T07:47:55.430Z,79.60
2019-02-26T07:50:21.178Z,77.90
2019-02-26T07:52:49.835Z,76.00
2019-02-26T07:55:17.458Z,75.80
2019-02-26T07:57:45.562Z,76.80
2019-02-26T08:00:15.460Z,77.90
2019-02-26T08:02:42.193Z,78.40
2019-02-26T08:05:09.555Z,79.50
2019-02-26T08:07:36.413Z,81.10
2019-02-26T08:10:06.102Z,81.40
2019-02-26T08:12:35.577Z,82.90
2019-02-26T08:15:05.690Z,85.30
2019-02-26T08:17:32.402Z,87.30
2019-02-26T08:20:01.660Z,87.90
2019-02-26T08:22:30.125Z,89.20
2019-02-26T08:24:58.124Z,90.00
2019-02-26T08:27:26.359Z,90.60
2019-02-26T08:29:55.992Z,91.00
2019-02-26T08:32:23.962Z,91.30
2019-02-26T08:34:51.795Z,91.20
2019-02-26T08:37:18.779Z,91.40
2019-02-26T08:39:45.543Z,91.80
2019-02-26T08:42:12.331Z,92.10
2019-02-26T08:44:39.206Z,92.00
2019-02-26T08:47:09.123Z,92.60
2019-02-26T08:49:35.354Z,92.60
2019-02-26T08:52:03.672Z,92.30
2019-02-26T08:54:32.705Z,92.40
2019-02-26T08:56:59.233Z,92.20
2019-02-26T08:59:26.007Z,92.60
2019-02-26T09:01:52.955Z,92.30
2019-02-26T09:04:21.498Z,92.50
2019-02-26T09:06:50.564Z,92.50
2019-02-26T09:09:17.399Z,92.40
2019-02-26T09:11:44.391Z,92.40
2019-02-26T09:14:12.179Z,92.60
2019-02-26T09:16:40.099Z,92.60
2019-02-26T09:19:06.935Z,92.70
2019-02-26T09:21:34.637Z,92.90
2019-02-26T09:24:07.084Z,92.60
2019-02-26T09:26:31.576Z,92.50
2019-02-26T09:28:58.455Z,92.60
2019-02-26T09:31:25.255Z,92.40
2019-02-26T09:33:52.043Z,92.10
2019-02-26T09:36:21.465Z,92.00
2019-02-26T09:38:49.639Z,91.40
2019-02-26T09:41:17.060Z,91.10
2019-02-26T09:43:45.944Z,90.90
2019-02-26T09:46:16.357Z,90.50
2019-02-26T09:48:45.084Z,89.70
2019-02-26T09:51:12.453Z,88.00
2019-02-26T09:53:40.211Z,86.60
2019-02-26T09:56:07.243Z,85.20
2019-02-26T09:58:34.107Z,82.00
2019-02-26T10:01:01.087Z,78.90
2019-02-26T10:03:29.701Z,76.50
2019-02-26T10:05:57.874Z,72.70
2019-02-26T10:08:27.223Z,71.10
2019-02-26T10:10:54.988Z,65.60
2019-02-26T10:13:24.712Z,58.30
2019-02-26T10:15:51.331Z,53.50
2019-02-26T10:18:18.114Z,48.40
2019-02-26T10:20:47.371Z,45.70
2019-02-26T10:23:13.638Z,46.40
2019-02-26T10:25:40.668Z,43.30
2019-02-26T10:28:11.030Z,42.70
2019-02-26T10:30:38.784Z,42.60
2019-02-26T10:33:06.507Z,43.80
2019-02-26T10:35:35.631Z,47.10
2019-02-26T10:38:03.591Z,48.10
2019-02-26T10:40:35.702Z,49.10
2019-02-26T10:42:59.635Z,48.10
2019-02-26T10:45:26.634Z,48.20
2019-02-26T10:47:56.246Z,47.30
2019-02-26T10:50:25.561Z,45.20
2019-02-26T10:52:52.837Z,40.40
2019-02-26T10:55:21.922Z,37.40
2019-02-26T10:57:48.645Z,36.20
2019-02-26T11:00:22.766Z,35.20
2019-02-26T11:02:50.992Z,33.30
2019-02-26T11:05:20.789Z,31.60
2019-02-26T11:07:47.278Z,29.90
2019-02-26T11:10:15.454Z,28.80
2019-02-26T11:12:42.951Z,28.40
2019-02-26T11:15:10.900Z,27.70
2019-02-26T11:17:37.691Z,27.30
2019-02-26T11:20:07.666Z,27.00
2019-02-26T11:22:34.083Z,26.30
2019-02-26T11:25:01.600Z,26.40
2019-02-26T11:27:28.575Z,26.00
2019-02-26T11:29:57.674Z,25.40
2019-02-26T11:32:24.235Z,25.60
2019-02-26T11:34:52.789Z,25.60
2019-02-26T11:37:20.328Z,25.20
2019-02-26T11:39:48.344Z,26.30
2019-02-26T11:42:16.464Z,27.30
2019-02-26T11:44:44.014Z,27.30
2019-02-26T11:47:13.098Z,26.30
2019-02-26T11:49:41.671Z,26.50
2019-02-26T11:52:08.503Z,27.10
2019-02-26T11:54:37.263Z,26.70
2019-02-26T11:57:05.176Z,26.70
2019-02-26T11:59:33.798Z,27.10
2019-02-26T12:02:03.889Z,27.50
2019-02-26T12:04:30.413Z,26.90
2019-02-26T12:06:58.504Z,26.40
2019-02-26T12:09:25.959Z,26.30
2019-02-26T12:11:52.919Z,26.20
2019-02-26T12:14:21.529Z,25.90
2019-02-26T12:16:48.519Z,25.30
2019-02-26T12:19:15.278Z,25.00
2019-02-26T12:21:42.131Z,25.60
2019-02-26T12:24:09.108Z,25.70
2019-02-26T12:26:37.567Z,26.10
2019-02-26T12:29:04.563Z,26.50
2019-02-26T12:31:34.021Z,26.00
2019-02-26T12:34:00.306Z,25.60
2019-02-26T12:36:29.763Z,26.40
2019-02-26T12:38:56.439Z,26.40
2019-02-26T12:41:24.691Z,26.60
2019-02-26T12:43:51.534Z,26.80
2019-02-26T12:46:19.769Z,26.70
2019-02-26T12:48:50.177Z,27.10
2019-02-26T12:51:16.011Z,27.10
2019-02-26T12:53:44.085Z,26.90
2019-02-26T12:56:12.987Z,26.80
2019-02-26T12:58:41.126Z,26.70
2019-02-26T13:01:08.627Z,26.50
2019-02-26T13:03:38.843Z,26.50
2019-02-26T13:06:06.035Z,26.40
2019-02-26T13:08:33.196Z,26.50
2019-02-26T13:11:00.054Z,26.80
2019-02-26T13:13:26.783Z,27.70
2019-02-26T13:15:53.677Z,27.50
2019-02-26T13:18:20.518Z,27.10
2019-02-26T13:20:52.034Z,26.80
2019-02-26T13:23:17.807Z,25.80
2019-02-26T13:25:44.831Z,27.10
2019-02-26T13:28:11.691Z,27.20
2019-02-26T13:30:38.687Z,28.00
2019-02-26T13:33:10.664Z,28.20
2019-02-26T13:35:34.345Z,28.60
2019-02-26T13:38:01.313Z,28.60
2019-02-26T13:40:28.498Z,28.80
2019-02-26T13:45:24.983Z,29.20
2019-02-26T13:47:52.384Z,29.50
2019-02-26T13:50:24.215Z,29.70
2019-02-26T13:52:52.116Z,31.10
2019-02-26T13:55:19.190Z,31.70
2019-02-26T13:57:46.398Z,32.20
2019-02-26T14:00:14.218Z,32.30
2019-02-26T14:02:41.263Z,33.00
2019-02-26T14:05:08.513Z,33.90
2019-02-26T14:07:35.501Z,35.10
2019-02-26T14:10:02.577Z,36.60
2019-02-26T14:12:29.333Z,37.90
2019-02-26T14:14:56.207Z,39.60
2019-02-26T14:17:22.943Z,41.30
2019-02-26T14:19:49.979Z,41.70
2019-02-26T14:22:17.035Z,43.00
2019-02-26T14:24:43.916Z,43.40
2019-02-26T14:27:10.849Z,44.90
2019-02-26T14:29:37.707Z,45.80
2019-02-26T14:32:04.639Z,46.30
2019-02-26T14:34:31.375Z,46.70
2019-02-26T14:36:58.568Z,47.50
2019-02-26T14:39:25.669Z,48.10
2019-02-26T14:41:52.552Z,47.90
2019-02-26T14:44:19.403Z,47.70
2019-02-26T14:46:46.303Z,47.90
2019-02-26T14:49:13.139Z,47.60
2019-02-26T14:51:39.987Z,47.70
2019-02-26T14:54:06.827Z,47.40
2019-02-26T14:56:33.694Z,46.90
2019-02-26T14:59:00.455Z,47.50
2019-02-26T15:01:27.190Z,47.10
2019-02-26T15:03:54.298Z,45.70
2019-02-26T15:06:21.151Z,46.30
2019-02-26T15:08:47.895Z,45.80
2019-02-26T15:11:14.735Z,45.10
2019-02-26T15:13:41.594Z,45.20
2019-02-26T15:16:08.368Z,45.00
2019-02-26T15:18:35.807Z,46.30
2019-02-26T15:21:02.903Z,46.70
2019-02-26T15:23:29.700Z,46.80
2019-02-26T15:25:56.439Z,47.00
2019-02-26T15:28:23.195Z,47.60
2019-02-26T15:30:49.943Z,47.60
2019-02-26T15:33:16.831Z,46.20
2019-02-26T15:35:43.798Z,46.00
2019-02-26T15:38:10.543Z,45.90
2019-02-26T15:40:37.439Z,46.10
2019-02-26T15:43:04.319Z,46.40
2019-02-26T15:45:31.567Z,47.30
2019-02-26T15:47:58.483Z,46.70
2019-02-26T15:50:25.464Z,46.90
2019-02-26T15:52:52.989Z,47.50
2019-02-26T15:55:20.607Z,47.70
2019-02-26T15:57:49.750Z,47.70
2019-02-26T16:00:18.315Z,47.90
2019-02-26T16:02:45.982Z,48.40
2019-02-26T16:05:12.958Z,49.30
2019-02-26T16:07:39.897Z,49.40
2019-02-26T16:10:07.587Z,49.40
2019-02-26T16:12:34.712Z,49.70
2019-02-26T16:15:01.819Z,49.90
2019-02-26T16:17:30.396Z,50.20
2019-02-26T16:19:57.279Z,50.50
2019-02-26T16:22:24.252Z,50.60
2019-02-26T16:24:51.103Z,50.70
2019-02-26T16:27:19.804Z,51.00
2019-02-26T16:29:48.444Z,50.90
2019-02-26T16:32:15.444Z,51.00
2019-02-26T16:34:42.410Z,51.50
2019-02-26T16:37:09.359Z,52.50
2019-02-26T16:39:36.631Z,52.50
2019-02-26T16:42:03.635Z,53.00
2019-02-26T16:44:30.477Z,54.10
2019-02-26T16:46:57.547Z,54.10
2019-02-26T16:49:25.890Z,55.10
2019-02-26T16:51:54.945Z,56.00
2019-02-26T16:54:22.236Z,57.70
2019-02-26T16:56:49.083Z,59.40
2019-02-26T16:59:15.979Z,61.30
2019-02-26T17:01:42.760Z,62.90
2019-02-26T17:04:09.490Z,63.80
2019-02-26T17:06:36.595Z,66.00
2019-02-26T17:09:05.263Z,66.30
2019-02-26T17:11:32.463Z,67.50
2019-02-26T17:13:59.537Z,68.70
2019-02-26T17:16:26.279Z,69.90
2019-02-26T17:18:53.067Z,71.40
2019-02-26T17:21:19.826Z,72.30
2019-02-26T17:23:47.704Z,73.50
2019-02-26T17:26:14.615Z,75.10
2019-02-26T17:28:43.440Z,76.20
2019-02-26T17:31:10.156Z,77.20
2019-02-26T17:33:37.004Z,77.70
2019-02-26T17:36:04.089Z,78.60
2019-02-26T17:38:30.940Z,79.20
2019-02-26T17:40:57.955Z,79.70
2019-02-26T17:43:25.112Z,80.30
2019-02-26T17:45:52.348Z,80.50
2019-02-26T17:48:19.198Z,80.90
2019-02-26T17:50:46.625Z,81.10
2019-02-26T17:53:13.699Z,81.70
2019-02-26T17:55:40.694Z,82.70
2019-02-26T17:58:10.061Z,83.50
2019-02-26T18:00:38.906Z,83.70
2019-02-26T18:03:07.228Z,84.40
2019-02-26T18:05:34.623Z,84.70
2019-02-26T18:08:01.794Z,85.60
2019-02-26T18:10:28.795Z,86.40
2019-02-26T18:12:56.035Z,87.50
2019-02-26T18:15:23.193Z,88.30
2019-02-26T18:17:51.270Z,88.40
2019-02-26T18:20:18.239Z,88.20
2019-02-26T18:22:45.099Z,88.00
2019-02-26T18:25:13.235Z,88.40
2019-02-26T18:27:40.195Z,89.20
2019-02-26T18:30:10.077Z,89.20
2019-02-26T18:32:36.984Z,89.50
2019-02-26T18:35:04.115Z,90.00
2019-02-26T18:37:31.095Z,90.10
2019-02-26T18:39:57.995Z,90.40
2019-02-26T18:42:25.393Z,90.90
2019-02-26T18:44:54.163Z,90.80
2019-02-26T18:47:21.172Z,90.90
2019-02-26T18:49:48.068Z,91.10
2019-02-26T18:52:15.097Z,91.20
2019-02-26T18:54:42.002Z,91.30
2019-02-26T18:57:11.278Z,91.50
2019-02-26T18:59:37.635Z,91.60
2019-02-26T19:02:04.855Z,92.00
2019-02-26T19:04:31.643Z,92.20
2019-02-26T19:06:59.635Z,92.60
2019-02-26T19:09:27.813Z,92.90
2019-02-26T19:11:55.525Z,93.00
2019-02-26T19:14:23.784Z,93.60
2019-02-26T19:16:54.135Z,93.60
2019-02-26T19:19:19.291Z,93.70
2019-02-26T19:21:46.079Z,93.70
2019-02-26T19:24:12.827Z,93.80
2019-02-26T19:26:39.719Z,94.00
2019-02-26T19:29:06.443Z,94.10
2019-02-26T19:31:33.231Z,94.00
2019-02-26T19:34:00.138Z,94.10
2019-02-26T19:36:26.983Z,93.90
2019-02-26T19:38:53.759Z,94.10
2019-02-26T19:41:20.511Z,94.30
2019-02-26T19:43:47.411Z,94.40
2019-02-26T19:46:16.930Z,94.50
2019-02-26T19:48:43.068Z,94.60
2019-02-26T19:51:09.811Z,94.70
2019-02-26T19:53:36.703Z,94.80
2019-02-26T19:56:03.837Z,95.10
2019-02-26T19:58:31.805Z,95.20
2019-02-26T20:00:58.828Z,95.40
2019-02-26T20:03:25.835Z,95.60
2019-02-26T20:05:52.675Z,95.60
2019-02-26T20:08:19.566Z,95.70
2019-02-26T20:10:48.725Z,95.80
2019-02-26T20:13:16.618Z,95.80
2019-02-26T20:15:43.447Z,95.80
2019-02-26T20:18:20.149Z,95.80
2019-02-26T20:20:41.057Z,95.80
2019-02-26T20:23:08.087Z,95.90
2019-02-26T20:25:34.918Z,96.00
2019-02-26T20:28:05.306Z,96.00
2019-02-26T20:30:30.894Z,96.00
2019-02-26T20:32:57.866Z,96.00
2019-02-26T20:35:24.913Z,96.10
2019-02-26T20:37:51.653Z,96.00
2019-02-26T20:40:18.700Z,96.00
2019-02-26T20:42:45.665Z,95.90
2019-02-26T20:45:17.709Z,95.90
2019-02-26T20:47:43.340Z,95.80
2019-02-26T20:50:10.523Z,95.80
2019-02-26T20:52:37.576Z,95.80
2019-02-26T20:55:06.004Z,95.70
2019-02-26T20:57:37.401Z,96.00
2019-02-26T21:00:01.912Z,96.10
2019-02-26T21:02:28.703Z,96.30
2019-02-26T21:04:55.528Z,96.30
2019-02-26T21:07:24.414Z,96.30
2019-02-26T21:09:51.087Z,96.20
2019-02-26T21:12:17.825Z,95.90
2019-02-26T21:14:44.552Z,96.00
2019-02-26T21:17:11.307Z,96.10
2019-02-26T21:19:38.187Z,96.10
2019-02-26T21:22:08.469Z,96.10
2019-02-26T21:24:35.408Z,95.60
2019-02-26T21:27:02.331Z,95.50
2019-02-26T21:29:29.112Z,95.50
2019-02-26T21:31:55.855Z,95.80
2019-02-26T21:34:22.619Z,95.60
2019-02-26T21:36:49.577Z,95.60
2019-02-26T21:39:16.527Z,95.50
2019-02-26T21:41:43.358Z,95.60
2019-02-26T21:44:10.175Z,95.80
2019-02-26T21:46:37.187Z,96.10
2019-02-26T21:49:04.026Z,96.30
2019-02-26T21:51:33.752Z,96.50
2019-02-26T21:54:04.464Z,96.40
2019-02-26T21:56:31.415Z,96.50
2019-02-26T21:58:59.687Z,96.30
2019-02-26T22:01:27.007Z,96.30
2019-02-26T22:03:55.783Z,96.20
2019-02-26T22:06:22.540Z,95.90
2019-02-26T22:08:49.516Z,96.00
2019-02-26T22:11:18.623Z,96.10
2019-02-26T22:13:46.086Z,96.10
2019-02-26T22:16:14.949Z,96.30
2019-02-26T22:18:42.092Z,96.40
2019-02-26T22:21:08.966Z,96.50
2019-02-26T22:23:35.863Z,96.40
2019-02-26T22:26:02.651Z,96.40
2019-02-26T22:28:29.415Z,96.40
2019-02-26T22:30:56.536Z,96.10
2019-02-26T22:33:23.431Z,96.30
2019-02-26T22:35:50.200Z,96.20
2019-02-26T22:38:16.912Z,96.20
2019-02-26T22:40:43.780Z,96.20
2019-02-26T22:43:13.367Z,96.10
2019-02-26T22:45:39.139Z,96.00
2019-02-26T22:48:06.127Z,96.00
2019-02-26T22:50:33.086Z,96.00
2019-02-26T22:53:03.771Z,95.90
2019-02-26T22:55:28.751Z,95.80
2019-02-26T22:57:55.640Z,95.80
2019-02-26T23:00:49.229Z,95.90
2019-02-26T23:03:16.655Z,95.50
2019-02-26T23:05:43.528Z,95.20
2019-02-26T23:08:11.877Z,95.10
2019-02-26T23:10:39.660Z,95.00
2019-02-26T23:13:08.628Z,94.90
2019-02-26T23:15:35.784Z,95.00
2019-02-26T23:18:02.868Z,95.10
2019-02-26T23:20:30.149Z,95.00
2019-02-26T23:22:57.308Z,94.90
2019-02-26T23:25:24.484Z,94.50
2019-02-26T23:27:51.375Z,94.10
2019-02-26T23:30:18.601Z,93.00
2019-02-26T23:32:45.530Z,93.50
2019-02-26T23:35:12.539Z,93.90
2019-02-26T23:37:39.528Z,93.90
2019-02-26T23:40:07.305Z,94.20
2019-02-26T23:42:38.784Z,94.20
2019-02-26T23:45:03.511Z,94.30
2019-02-26T23:47:34.938Z,94.60
2019-02-26T23:49:59.224Z,94.70
2019-02-26T23:52:27.722Z,94.60
2019-02-26T23:54:54.747Z,94.50
2019-02-26T23:57:22.770Z,94.20
2019-02-26T23:59:50.289Z,94.10
